Oval Lp No.11 — JL6306 — position and weather

sailwx.info

Track history (hours):
 
Tides and Currents Weather Stations Pressure Air Temp Water Temp Dewpoint Dewpoint Depression Visibility Wind Speed Wind Dir Waves Ship Positions

Oval Lp No.11

Last reported at 2014-Sep-30 17:28 UTC. Time now 2014-Sep-30 17:54 UTC.
Position N 35°29' E 139°56'.

Length 67 m; draft 3.6 m.

Type: Ship (hazmat cat A). MMSI: 431500366.

Date/timePositionNaut miles runAvg speedWind from/ knotsBaromVisibWave heightAir tempDewpointWater temp
2014-Sep-30 17:28N 35°29' E 139°56'0 0.0
2014-Sep-30 16:31N 35°29' E 139°56'0 0.0
2014-Sep-30 15:19N 35°29' E 139°56'0 0.0
2014-Sep-30 11:25N 35°29' E 139°56'0 0.2
2014-Sep-30 10:23N 35°29' E 139°55'1012.1
2014-Sep-30 09:33N 35°23' E 139°46'1211.6
2014-Sep-30 08:33N 35°12' E 139°47'  
2014-Sep-26 07:32N 33°57' E 135°00'1312.5
2014-Sep-26 06:28N 34°10' E 134°58'1213.1
2014-Sep-26 05:32N 34°22' E 135°00'1312.8
2014-Sep-26 04:33N 34°30' E 135°12'1111.5
2014-Sep-26 03:33N 34°36' E 135°24'3 0.5
2014-Sep-25 22:33N 34°35' E 135°26'3 2.2
2014-Sep-25 21:24N 34°36' E 135°23'0 0.1
2014-Sep-25 20:30N 34°36' E 135°23'0 0.0
2014-Sep-25 19:24N 34°36' E 135°23'0 0.0
2014-Sep-25 18:24N 34°36' E 135°23'0 0.0
2014-Sep-25 17:18N 34°36' E 135°23'0 0.0
2014-Sep-25 16:30N 34°36' E 135°23'0 0.0
2014-Sep-25 15:30N 34°36' E 135°23'0 0.0
2014-Sep-25 14:30N 34°36' E 135°23'0 0.0
2014-Sep-25 13:30N 34°36' E 135°23'0 0.0
2014-Sep-25 12:30N 34°36' E 135°23'0 0.0
2014-Sep-25 11:24N 34°36' E 135°23'0 0.0
2014-Sep-25 10:18N 34°36' E 135°23'0 0.0
2014-Sep-25 09:30N 34°36' E 135°23'0 0.0
2014-Sep-25 08:30N 34°36' E 135°23'0 0.0
2014-Sep-25 07:30N 34°36' E 135°23'0 0.0
2014-Sep-25 05:30N 34°36' E 135°23'0 0.0
2014-Sep-25 04:30N 34°36' E 135°23'0 0.1
2014-Sep-25 03:24N 34°36' E 135°23'0 0.0
2014-Sep-25 02:30N 34°36' E 135°23'0 0.0
2014-Sep-25 01:30N 34°36' E 135°23'0 0.0
2014-Sep-25 00:30N 34°36' E 135°23'0 0.0
2014-Sep-24 23:30N 34°36' E 135°23'0 0.0
2014-Sep-24 22:24N 34°36' E 135°23'0 0.0
2014-Sep-24 21:30N 34°36' E 135°23'0 0.0
2014-Sep-24 20:24N 34°36' E 135°23'0 0.0
2014-Sep-24 19:30N 34°36' E 135°23'0 0.0
2014-Sep-24 18:30N 34°36' E 135°23'0 0.1
2014-Sep-24 17:30N 34°36' E 135°23'0 0.0
2014-Sep-24 16:30N 34°36' E 135°23'0 0.0
2014-Sep-24 15:30N 34°36' E 135°23'0 0.1
2014-Sep-24 14:30N 34°36' E 135°23'0 0.1
2014-Sep-24 13:30N 34°36' E 135°23'0 0.0
2014-Sep-24 12:30N 34°36' E 135°23'0 0.0
2014-Sep-24 11:30N 34°36' E 135°23'0 0.0
2014-Sep-24 08:18N 34°36' E 135°23'0 0.2
2014-Sep-24 07:33N 34°36' E 135°23'2 2.5
2014-Sep-24 06:34N 34°35' E 135°26'0 0.1
2014-Sep-24 03:09N 34°34' E 135°26'3 4.5
2014-Sep-24 02:33N 34°36' E 135°23'3 0.9
2014-Sep-23 23:23N 34°34' E 135°25'2 2.3
2014-Sep-23 22:32N 34°35' E 135°23'0 0.0
2014-Sep-23 21:32N 34°35' E 135°23'0 0.0
2014-Sep-23 20:32N 34°34' E 135°23'0 0.0
2014-Sep-23 19:14N 34°35' E 135°23'0 0.0
2014-Sep-23 18:14N 34°35' E 135°23'0 0.0
2014-Sep-23 16:08N 34°34' E 135°23'0 0.0
2014-Sep-23 15:26N 34°34' E 135°23'0 0.0
2014-Sep-23 14:32N 34°34' E 135°23'0 0.0
2014-Sep-23 13:32N 34°34' E 135°23'0 0.1
2014-Sep-23 12:32N 34°35' E 135°23'0 0.0
2014-Sep-23 11:32N 34°35' E 135°23'0 0.0
2014-Sep-23 10:32N 34°35' E 135°23'0 0.0
2014-Sep-23 09:26N 34°35' E 135°23'0 0.1
2014-Sep-23 08:32N 34°35' E 135°23'0 0.0
2014-Sep-23 07:32N 34°35' E 135°23'0 0.0
2014-Sep-23 06:26N 34°34' E 135°23'0 0.0
2014-Sep-23 05:32N 34°34' E 135°23'0 0.0
2014-Sep-23 04:14N 34°34' E 135°23'0 0.0
2014-Sep-23 03:32N 34°34' E 135°23'0 0.1
2014-Sep-23 02:33N 34°35' E 135°23'2 0.5
2014-Sep-22 22:33N 34°35' E 135°25'2 1.9
2014-Sep-22 21:28N 34°36' E 135°23'0 0.0
2014-Sep-22 20:28N 34°36' E 135°23'0 0.0
2014-Sep-22 19:28N 34°36' E 135°23'0 0.0
2014-Sep-22 18:22N 34°36' E 135°23'0 0.0
2014-Sep-22 17:28N 34°36' E 135°23'0 0.0
2014-Sep-22 16:28N 34°36' E 135°23'0 0.0
2014-Sep-22 15:28N 34°36' E 135°23'0 0.0
2014-Sep-22 14:22N 34°36' E 135°23'0 0.0
2014-Sep-22 13:22N 34°36' E 135°23'0 0.0
2014-Sep-22 12:16N 34°36' E 135°23'0 0.0
2014-Sep-22 11:16N 34°36' E 135°23'0 0.0
2014-Sep-22 10:28N 34°36' E 135°23'4 3.9
2014-Sep-22 09:33N 34°33' E 135°20'1111.2
2014-Sep-22 08:33N 34°26' E 135°10'1212.0
2014-Sep-22 07:33N 34°17' E 134°59'1111.2
2014-Sep-22 06:32N 34°06' E 135°01'243 9.7
2014-Sep-21 05:29N 35°12' E 139°45'1010.9
2014-Sep-21 04:34N 35°21' E 139°42'1111.2
2014-Sep-21 03:33N 35°30' E 139°52'11 2.3
2014-Sep-20 22:32N 35°33' E 140°05'  
Track history (hours):
 
Tides and Currents Weather Stations Pressure Air Temp Water Temp Dewpoint Dewpoint Depression Visibility Wind Speed Wind Dir Waves Ship Positions

Oval Lp No.11

Last reported at 2014-Sep-30 17:28 UTC. Time now 2014-Sep-30 17:54 UTC.
Position N 35°29' E 139°56'.

Length 67 m; draft 3.6 m.

Type: Ship (hazmat cat A). MMSI: 431500366.

Date/timePositionNaut miles runAvg speedWind from/ knotsBaromVisibWave heightAir tempDewpointWater temp
2014-Sep-30 17:28N 35°29' E 139°56'0 0.0
2014-Sep-30 16:31N 35°29' E 139°56'0 0.0
2014-Sep-30 15:19N 35°29' E 139°56'0 0.0
2014-Sep-30 11:25N 35°29' E 139°56'0 0.2
2014-Sep-30 10:23N 35°29' E 139°55'1012.1
2014-Sep-30 09:33N 35°23' E 139°46'1211.6
2014-Sep-30 08:33N 35°12' E 139°47'  
2014-Sep-26 07:32N 33°57' E 135°00'1312.5
2014-Sep-26 06:28N 34°10' E 134°58'1213.1
2014-Sep-26 05:32N 34°22' E 135°00'1312.8
2014-Sep-26 04:33N 34°30' E 135°12'1111.5
2014-Sep-26 03:33N 34°36' E 135°24'3 0.5
2014-Sep-25 22:33N 34°35' E 135°26'3 2.2
2014-Sep-25 21:24N 34°36' E 135°23'0 0.1
2014-Sep-25 20:30N 34°36' E 135°23'0 0.0
2014-Sep-25 19:24N 34°36' E 135°23'0 0.0
2014-Sep-25 18:24N 34°36' E 135°23'0 0.0
2014-Sep-25 17:18N 34°36' E 135°23'0 0.0
2014-Sep-25 16:30N 34°36' E 135°23'0 0.0
2014-Sep-25 15:30N 34°36' E 135°23'0 0.0
2014-Sep-25 14:30N 34°36' E 135°23'0 0.0
2014-Sep-25 13:30N 34°36' E 135°23'0 0.0
2014-Sep-25 12:30N 34°36' E 135°23'0 0.0
2014-Sep-25 11:24N 34°36' E 135°23'0 0.0
2014-Sep-25 10:18N 34°36' E 135°23'0 0.0
2014-Sep-25 09:30N 34°36' E 135°23'0 0.0
2014-Sep-25 08:30N 34°36' E 135°23'0 0.0
2014-Sep-25 07:30N 34°36' E 135°23'0 0.0
2014-Sep-25 05:30N 34°36' E 135°23'0 0.0
2014-Sep-25 04:30N 34°36' E 135°23'0 0.1
2014-Sep-25 03:24N 34°36' E 135°23'0 0.0
2014-Sep-25 02:30N 34°36' E 135°23'0 0.0
2014-Sep-25 01:30N 34°36' E 135°23'0 0.0
2014-Sep-25 00:30N 34°36' E 135°23'0 0.0
2014-Sep-24 23:30N 34°36' E 135°23'0 0.0
2014-Sep-24 22:24N 34°36' E 135°23'0 0.0
2014-Sep-24 21:30N 34°36' E 135°23'0 0.0
2014-Sep-24 20:24N 34°36' E 135°23'0 0.0
2014-Sep-24 19:30N 34°36' E 135°23'0 0.0
2014-Sep-24 18:30N 34°36' E 135°23'0 0.1
2014-Sep-24 17:30N 34°36' E 135°23'0 0.0
2014-Sep-24 16:30N 34°36' E 135°23'0 0.0
2014-Sep-24 15:30N 34°36' E 135°23'0 0.1
2014-Sep-24 14:30N 34°36' E 135°23'0 0.1
2014-Sep-24 13:30N 34°36' E 135°23'0 0.0
2014-Sep-24 12:30N 34°36' E 135°23'0 0.0
2014-Sep-24 11:30N 34°36' E 135°23'0 0.0
2014-Sep-24 08:18N 34°36' E 135°23'0 0.2
2014-Sep-24 07:33N 34°36' E 135°23'2 2.5
2014-Sep-24 06:34N 34°35' E 135°26'0 0.1
2014-Sep-24 03:09N 34°34' E 135°26'3 4.5
2014-Sep-24 02:33N 34°36' E 135°23'3 0.9
2014-Sep-23 23:23N 34°34' E 135°25'2 2.3
2014-Sep-23 22:32N 34°35' E 135°23'0 0.0
2014-Sep-23 21:32N 34°35' E 135°23'0 0.0
2014-Sep-23 20:32N 34°34' E 135°23'0 0.0
2014-Sep-23 19:14N 34°35' E 135°23'0 0.0
2014-Sep-23 18:14N 34°35' E 135°23'0 0.0
2014-Sep-23 16:08N 34°34' E 135°23'0 0.0
2014-Sep-23 15:26N 34°34' E 135°23'0 0.0
2014-Sep-23 14:32N 34°34' E 135°23'0 0.0
2014-Sep-23 13:32N 34°34' E 135°23'0 0.1
2014-Sep-23 12:32N 34°35' E 135°23'0 0.0
2014-Sep-23 11:32N 34°35' E 135°23'0 0.0
2014-Sep-23 10:32N 34°35' E 135°23'0 0.0
2014-Sep-23 09:26N 34°35' E 135°23'0 0.1
2014-Sep-23 08:32N 34°35' E 135°23'0 0.0
2014-Sep-23 07:32N 34°35' E 135°23'0 0.0
2014-Sep-23 06:26N 34°34' E 135°23'0 0.0
2014-Sep-23 05:32N 34°34' E 135°23'0 0.0
2014-Sep-23 04:14N 34°34' E 135°23'0 0.0
2014-Sep-23 03:32N 34°34' E 135°23'0 0.1
2014-Sep-23 02:33N 34°35' E 135°23'2 0.5
2014-Sep-22 22:33N 34°35' E 135°25'2 1.9
2014-Sep-22 21:28N 34°36' E 135°23'0 0.0
2014-Sep-22 20:28N 34°36' E 135°23'0 0.0
2014-Sep-22 19:28N 34°36' E 135°23'0 0.0
2014-Sep-22 18:22N 34°36' E 135°23'0 0.0
2014-Sep-22 17:28N 34°36' E 135°23'0 0.0
2014-Sep-22 16:28N 34°36' E 135°23'0 0.0
2014-Sep-22 15:28N 34°36' E 135°23'0 0.0
2014-Sep-22 14:22N 34°36' E 135°23'0 0.0
2014-Sep-22 13:22N 34°36' E 135°23'0 0.0
2014-Sep-22 12:16N 34°36' E 135°23'0 0.0
2014-Sep-22 11:16N 34°36' E 135°23'0 0.0
2014-Sep-22 10:28N 34°36' E 135°23'4 3.9
2014-Sep-22 09:33N 34°33' E 135°20'1111.2
2014-Sep-22 08:33N 34°26' E 135°10'1212.0
2014-Sep-22 07:33N 34°17' E 134°59'1111.2
2014-Sep-22 06:32N 34°06' E 135°01'243 9.7
2014-Sep-21 05:29N 35°12' E 139°45'1010.9
2014-Sep-21 04:34N 35°21' E 139°42'1111.2
2014-Sep-21 03:33N 35°30' E 139°52'11 2.3
2014-Sep-20 22:32N 35°33' E 140°05'  

Dump ship's entire track history